sensor_id;sensor_type;location;lat;lon;timestamp;P1;durP1;ratioP1;P2;durP2;ratioP2
26082;SDS011;13848;49.018;12.078;2022-08-03T00:01:23;3.95;;;2.30;;
26082;SDS011;13848;49.018;12.078;2022-08-03T00:03:49;5.72;;;2.20;;
26082;SDS011;13848;49.018;12.078;2022-08-03T00:06:15;2.20;;;1.80;;
26082;SDS011;13848;49.018;12.078;2022-08-03T00:08:42;3.28;;;2.33;;
26082;SDS011;13848;49.018;12.078;2022-08-03T00:11:08;5.00;;;2.15;;
26082;SDS011;13848;49.018;12.078;2022-08-03T00:13:35;5.15;;;2.80;;
26082;SDS011;13848;49.018;12.078;2022-08-03T00:16:02;3.05;;;2.30;;
26082;SDS011;13848;49.018;12.078;2022-08-03T00:18:28;3.88;;;2.60;;
26082;SDS011;13848;49.018;12.078;2022-08-03T00:20:54;2.95;;;2.10;;
26082;SDS011;13848;49.018;12.078;2022-08-03T00:23:20;2.92;;;2.50;;
26082;SDS011;13848;49.018;12.078;2022-08-03T00:25:46;6.72;;;2.85;;
26082;SDS011;13848;49.018;12.078;2022-08-03T00:28:12;3.17;;;2.40;;
26082;SDS011;13848;49.018;12.078;2022-08-03T00:30:39;4.95;;;2.30;;
26082;SDS011;13848;49.018;12.078;2022-08-03T00:33:05;7.80;;;2.50;;
26082;SDS011;13848;49.018;12.078;2022-08-03T00:35:32;9.43;;;2.60;;
26082;SDS011;13848;49.018;12.078;2022-08-03T00:37:58;3.33;;;2.40;;
26082;SDS011;13848;49.018;12.078;2022-08-03T00:40:24;5.75;;;2.33;;
26082;SDS011;13848;49.018;12.078;2022-08-03T00:42:51;4.82;;;2.50;;
26082;SDS011;13848;49.018;12.078;2022-08-03T00:45:19;4.00;;;2.40;;
26082;SDS011;13848;49.018;12.078;2022-08-03T00:47:48;6.70;;;2.63;;
26082;SDS011;13848;49.018;12.078;2022-08-03T00:50:15;4.95;;;2.40;;
26082;SDS011;13848;49.018;12.078;2022-08-03T00:52:42;3.05;;;2.50;;
26082;SDS011;13848;49.018;12.078;2022-08-03T00:55:08;4.45;;;2.25;;
26082;SDS011;13848;49.018;12.078;2022-08-03T00:57:35;5.22;;;2.47;;
26082;SDS011;13848;49.018;12.078;2022-08-03T01:00:02;5.60;;;2.42;;
26082;SDS011;13848;49.018;12.078;2022-08-03T01:02:29;3.97;;;2.50;;
26082;SDS011;13848;49.018;12.078;2022-08-03T01:04:57;5.72;;;2.50;;
26082;SDS011;13848;49.018;12.078;2022-08-03T01:07:25;5.00;;;2.40;;
26082;SDS011;13848;49.018;12.078;2022-08-03T01:10:09;3.03;;;2.20;;
26082;SDS011;13848;49.018;12.078;2022-08-03T01:12:42;3.60;;;2.30;;
26082;SDS011;13848;49.018;12.078;2022-08-03T01:15:18;5.40;;;2.70;;
26082;SDS011;13848;49.018;12.078;2022-08-03T01:17:50;3.88;;;2.40;;
26082;SDS011;13848;49.018;12.078;2022-08-03T01:20:23;3.95;;;2.70;;
26082;SDS011;13848;49.018;12.078;2022-08-03T01:26:06;4.47;;;2.33;;
26082;SDS011;13848;49.018;12.078;2022-08-03T01:28:50;3.58;;;2.20;;
26082;SDS011;13848;49.018;12.078;2022-08-03T01:31:27;6.80;;;2.47;;
26082;SDS011;13848;49.018;12.078;2022-08-03T01:33:58;3.22;;;2.20;;
26082;SDS011;13848;49.018;12.078;2022-08-03T01:36:28;3.33;;;2.40;;
26082;SDS011;13848;49.018;12.078;2022-08-03T01:38:59;5.90;;;2.70;;
26082;SDS011;13848;49.018;12.078;2022-08-03T01:41:28;3.50;;;2.20;;
26082;SDS011;13848;49.018;12.078;2022-08-03T01:43:58;3.72;;;2.42;;
26082;SDS011;13848;49.018;12.078;2022-08-03T01:46:28;2.70;;;2.30;;
26082;SDS011;13848;49.018;12.078;2022-08-03T01:48:56;2.88;;;2.00;;
26082;SDS011;13848;49.018;12.078;2022-08-03T01:51:23;2.83;;;2.33;;
26082;SDS011;13848;49.018;12.078;2022-08-03T01:53:49;4.47;;;2.03;;
26082;SDS011;13848;49.018;12.078;2022-08-03T01:56:17;3.10;;;2.15;;
26082;SDS011;13848;49.018;12.078;2022-08-03T01:58:47;4.35;;;2.55;;
26082;SDS011;13848;49.018;12.078;2022-08-03T02:01:18;3.38;;;2.30;;
26082;SDS011;13848;49.018;12.078;2022-08-03T02:03:46;2.40;;;2.20;;
26082;SDS011;13848;49.018;12.078;2022-08-03T02:06:14;6.90;;;2.35;;
26082;SDS011;13848;49.018;12.078;2022-08-03T02:08:43;2.90;;;2.45;;
26082;SDS011;13848;49.018;12.078;2022-08-03T02:11:11;5.88;;;2.50;;
26082;SDS011;13848;49.018;12.078;2022-08-03T02:13:38;3.25;;;2.20;;
26082;SDS011;13848;49.018;12.078;2022-08-03T02:16:05;2.30;;;2.10;;
26082;SDS011;13848;49.018;12.078;2022-08-03T02:18:33;4.95;;;2.60;;
26082;SDS011;13848;49.018;12.078;2022-08-03T02:21:01;3.60;;;2.55;;
26082;SDS011;13848;49.018;12.078;2022-08-03T02:23:28;3.10;;;2.40;;
26082;SDS011;13848;49.018;12.078;2022-08-03T02:25:56;5.65;;;2.55;;
26082;SDS011;13848;49.018;12.078;2022-08-03T02:28:25;4.35;;;2.75;;
26082;SDS011;13848;49.018;12.078;2022-08-03T02:30:56;2.95;;;2.38;;
26082;SDS011;13848;49.018;12.078;2022-08-03T02:33:25;5.15;;;2.20;;
26082;SDS011;13848;49.018;12.078;2022-08-03T02:35:56;3.03;;;2.15;;
26082;SDS011;13848;49.018;12.078;2022-08-03T02:38:27;3.80;;;2.45;;
26082;SDS011;13848;49.018;12.078;2022-08-03T02:40:57;4.30;;;2.38;;
26082;SDS011;13848;49.018;12.078;2022-08-03T02:43:25;2.78;;;2.25;;
26082;SDS011;13848;49.018;12.078;2022-08-03T02:45:55;4.97;;;2.70;;
26082;SDS011;13848;49.018;12.078;2022-08-03T02:48:21;2.53;;;2.33;;
26082;SDS011;13848;49.018;12.078;2022-08-03T02:50:52;2.83;;;2.35;;
26082;SDS011;13848;49.018;12.078;2022-08-03T02:53:19;3.20;;;2.17;;
26082;SDS011;13848;49.018;12.078;2022-08-03T02:55:48;2.63;;;2.22;;
26082;SDS011;13848;49.018;12.078;2022-08-03T02:58:16;3.22;;;2.30;;
26082;SDS011;13848;49.018;12.078;2022-08-03T03:00:43;2.47;;;2.17;;
26082;SDS011;13848;49.018;12.078;2022-08-03T03:03:10;3.13;;;2.53;;
26082;SDS011;13848;49.018;12.078;2022-08-03T03:05:36;3.67;;;2.30;;
26082;SDS011;13848;49.018;12.078;2022-08-03T03:08:03;2.78;;;2.33;;
26082;SDS011;13848;49.018;12.078;2022-08-03T03:10:30;3.20;;;2.42;;
26082;SDS011;13848;49.018;12.078;2022-08-03T03:12:57;2.67;;;2.15;;
26082;SDS011;13848;49.018;12.078;2022-08-03T03:15:26;2.58;;;2.28;;
26082;SDS011;13848;49.018;12.078;2022-08-03T03:17:53;3.65;;;1.85;;
26082;SDS011;13848;49.018;12.078;2022-08-03T03:20:19;2.60;;;2.40;;
26082;SDS011;13848;49.018;12.078;2022-08-03T03:22:47;4.55;;;2.40;;
26082;SDS011;13848;49.018;12.078;2022-08-03T03:25:14;3.47;;;2.33;;
26082;SDS011;13848;49.018;12.078;2022-08-03T03:27:41;2.33;;;2.10;;
26082;SDS011;13848;49.018;12.078;2022-08-03T03:30:10;3.83;;;2.33;;
26082;SDS011;13848;49.018;12.078;2022-08-03T03:32:36;3.85;;;2.45;;
26082;SDS011;13848;49.018;12.078;2022-08-03T03:35:03;3.35;;;2.33;;
26082;SDS011;13848;49.018;12.078;2022-08-03T03:37:30;2.65;;;2.45;;
26082;SDS011;13848;49.018;12.078;2022-08-03T03:39:56;5.63;;;2.90;;
26082;SDS011;13848;49.018;12.078;2022-08-03T03:42:22;3.08;;;2.38;;
26082;SDS011;13848;49.018;12.078;2022-08-03T03:44:49;5.50;;;2.45;;
26082;SDS011;13848;49.018;12.078;2022-08-03T03:47:17;4.50;;;2.42;;
26082;SDS011;13848;49.018;12.078;2022-08-03T03:49:43;3.42;;;2.35;;
26082;SDS011;13848;49.018;12.078;2022-08-03T03:52:09;5.65;;;2.80;;
26082;SDS011;13848;49.018;12.078;2022-08-03T03:54:39;5.75;;;2.88;;
26082;SDS011;13848;49.018;12.078;2022-08-03T03:57:05;4.40;;;2.17;;
26082;SDS011;13848;49.018;12.078;2022-08-03T03:59:31;3.78;;;2.40;;
26082;SDS011;13848;49.018;12.078;2022-08-03T04:01:57;2.78;;;2.40;;
26082;SDS011;13848;49.018;12.078;2022-08-03T04:04:25;4.45;;;2.70;;
26082;SDS011;13848;49.018;12.078;2022-08-03T04:06:51;3.85;;;2.50;;
26082;SDS011;13848;49.018;12.078;2022-08-03T04:09:17;4.50;;;2.13;;
26082;SDS011;13848;49.018;12.078;2022-08-03T04:11:44;5.40;;;2.70;;
26082;SDS011;13848;49.018;12.078;2022-08-03T04:14:15;7.05;;;2.70;;
26082;SDS011;13848;49.018;12.078;2022-08-03T04:16:43;6.10;;;2.60;;
26082;SDS011;13848;49.018;12.078;2022-08-03T04:19:14;3.97;;;2.65;;
26082;SDS011;13848;49.018;12.078;2022-08-03T04:21:45;4.18;;;2.63;;
26082;SDS011;13848;49.018;12.078;2022-08-03T04:24:15;3.83;;;2.33;;
26082;SDS011;13848;49.018;12.078;2022-08-03T04:26:43;3.97;;;2.75;;
26082;SDS011;13848;49.018;12.078;2022-08-03T04:29:11;3.60;;;2.67;;
26082;SDS011;13848;49.018;12.078;2022-08-03T04:31:39;3.10;;;2.55;;
26082;SDS011;13848;49.018;12.078;2022-08-03T04:34:06;5.93;;;3.03;;
26082;SDS011;13848;49.018;12.078;2022-08-03T04:36:34;4.40;;;2.53;;
26082;SDS011;13848;49.018;12.078;2022-08-03T04:39:06;3.15;;;2.35;;
26082;SDS011;13848;49.018;12.078;2022-08-03T04:41:35;4.63;;;2.67;;
26082;SDS011;13848;49.018;12.078;2022-08-03T04:44:03;3.55;;;2.63;;
26082;SDS011;13848;49.018;12.078;2022-08-03T04:46:31;4.60;;;2.70;;
26082;SDS011;13848;49.018;12.078;2022-08-03T04:49:01;6.22;;;2.83;;
26082;SDS011;13848;49.018;12.078;2022-08-03T04:51:28;7.00;;;2.78;;
26082;SDS011;13848;49.018;12.078;2022-08-03T04:53:55;5.95;;;2.83;;
26082;SDS011;13848;49.018;12.078;2022-08-03T04:56:23;6.90;;;2.92;;
26082;SDS011;13848;49.018;12.078;2022-08-03T04:58:49;5.50;;;3.03;;
26082;SDS011;13848;49.018;12.078;2022-08-03T05:01:15;3.55;;;3.00;;
26082;SDS011;13848;49.018;12.078;2022-08-03T05:03:41;5.97;;;3.00;;
26082;SDS011;13848;49.018;12.078;2022-08-03T05:06:07;4.65;;;2.90;;
26082;SDS011;13848;49.018;12.078;2022-08-03T05:08:33;4.10;;;2.85;;
26082;SDS011;13848;49.018;12.078;2022-08-03T05:10:59;6.45;;;2.97;;
26082;SDS011;13848;49.018;12.078;2022-08-03T05:13:27;5.00;;;3.00;;
26082;SDS011;13848;49.018;12.078;2022-08-03T05:15:53;7.25;;;2.95;;
26082;SDS011;13848;49.018;12.078;2022-08-03T05:18:19;4.97;;;2.72;;
26082;SDS011;13848;49.018;12.078;2022-08-03T05:20:45;7.88;;;2.53;;
26082;SDS011;13848;49.018;12.078;2022-08-03T05:23:11;4.22;;;2.90;;
26082;SDS011;13848;49.018;12.078;2022-08-03T05:25:37;4.95;;;2.80;;
26082;SDS011;13848;49.018;12.078;2022-08-03T05:28:03;7.40;;;2.80;;
26082;SDS011;13848;49.018;12.078;2022-08-03T05:30:30;6.72;;;2.58;;
26082;SDS011;13848;49.018;12.078;2022-08-03T05:32:56;4.65;;;2.65;;
26082;SDS011;13848;49.018;12.078;2022-08-03T05:35:22;4.70;;;2.75;;
26082;SDS011;13848;49.018;12.078;2022-08-03T05:37:49;6.40;;;2.63;;
26082;SDS011;13848;49.018;12.078;2022-08-03T05:40:14;5.72;;;2.92;;
26082;SDS011;13848;49.018;12.078;2022-08-03T05:42:40;7.25;;;2.92;;
26082;SDS011;13848;49.018;12.078;2022-08-03T05:45:07;5.53;;;2.60;;
26082;SDS011;13848;49.018;12.078;2022-08-03T05:47:35;7.72;;;2.92;;
26082;SDS011;13848;49.018;12.078;2022-08-03T05:50:01;4.85;;;3.03;;
26082;SDS011;13848;49.018;12.078;2022-08-03T05:52:28;7.63;;;2.75;;
26082;SDS011;13848;49.018;12.078;2022-08-03T05:54:54;8.93;;;2.88;;
26082;SDS011;13848;49.018;12.078;2022-08-03T05:57:20;13.10;;;4.13;;
26082;SDS011;13848;49.018;12.078;2022-08-03T05:59:45;5.38;;;2.70;;
26082;SDS011;13848;49.018;12.078;2022-08-03T06:02:11;4.13;;;3.03;;
26082;SDS011;13848;49.018;12.078;2022-08-03T06:04:39;7.63;;;2.90;;
26082;SDS011;13848;49.018;12.078;2022-08-03T06:07:05;6.10;;;2.72;;
26082;SDS011;13848;49.018;12.078;2022-08-03T06:09:31;7.85;;;2.50;;
26082;SDS011;13848;49.018;12.078;2022-08-03T06:11:57;6.60;;;2.45;;
26082;SDS011;13848;49.018;12.078;2022-08-03T06:14:23;4.63;;;2.45;;
26082;SDS011;13848;49.018;12.078;2022-08-03T06:16:49;4.68;;;2.50;;
26082;SDS011;13848;49.018;12.078;2022-08-03T06:19:15;3.97;;;2.22;;
26082;SDS011;13848;49.018;12.078;2022-08-03T06:21:42;8.38;;;2.42;;
26082;SDS011;13848;49.018;12.078;2022-08-03T06:24:08;8.10;;;2.72;;
26082;SDS011;13848;49.018;12.078;2022-08-03T06:26:34;4.70;;;2.88;;
26082;SDS011;13848;49.018;12.078;2022-08-03T06:29:00;5.88;;;2.42;;
26082;SDS011;13848;49.018;12.078;2022-08-03T06:31:26;7.10;;;2.35;;
26082;SDS011;13848;49.018;12.078;2022-08-03T06:33:52;8.00;;;2.80;;
26082;SDS011;13848;49.018;12.078;2022-08-03T06:36:18;5.18;;;2.58;;
26082;SDS011;13848;49.018;12.078;2022-08-03T06:38:46;5.88;;;2.50;;
26082;SDS011;13848;49.018;12.078;2022-08-03T06:41:12;3.65;;;2.45;;
26082;SDS011;13848;49.018;12.078;2022-08-03T06:43:38;3.10;;;2.40;;
26082;SDS011;13848;49.018;12.078;2022-08-03T06:46:04;5.07;;;2.15;;
26082;SDS011;13848;49.018;12.078;2022-08-03T06:48:30;5.95;;;2.45;;
26082;SDS011;13848;49.018;12.078;2022-08-03T06:50:56;7.30;;;2.80;;
26082;SDS011;13848;49.018;12.078;2022-08-03T06:53:22;3.63;;;2.50;;
26082;SDS011;13848;49.018;12.078;2022-08-03T06:55:49;5.15;;;2.67;;
26082;SDS011;13848;49.018;12.078;2022-08-03T06:58:16;4.72;;;2.47;;
26082;SDS011;13848;49.018;12.078;2022-08-03T07:00:41;9.00;;;2.92;;
26082;SDS011;13848;49.018;12.078;2022-08-03T07:03:07;4.45;;;2.40;;
26082;SDS011;13848;49.018;12.078;2022-08-03T07:05:33;2.35;;;2.13;;
26082;SDS011;13848;49.018;12.078;2022-08-03T07:07:59;5.15;;;2.28;;
26082;SDS011;13848;49.018;12.078;2022-08-03T07:10:26;3.85;;;2.40;;
26082;SDS011;13848;49.018;12.078;2022-08-03T07:12:53;3.45;;;2.45;;
26082;SDS011;13848;49.018;12.078;2022-08-03T07:15:19;3.33;;;1.88;;
26082;SDS011;13848;49.018;12.078;2022-08-03T07:17:45;5.63;;;2.08;;
26082;SDS011;13848;49.018;12.078;2022-08-03T07:20:11;4.60;;;2.35;;
26082;SDS011;13848;49.018;12.078;2022-08-03T07:22:37;5.97;;;1.95;;
26082;SDS011;13848;49.018;12.078;2022-08-03T07:25:04;4.13;;;2.33;;
26082;SDS011;13848;49.018;12.078;2022-08-03T07:27:30;10.48;;;8.15;;
26082;SDS011;13848;49.018;12.078;2022-08-03T07:29:57;9.32;;;7.35;;
26082;SDS011;13848;49.018;12.078;2022-08-03T07:32:24;6.28;;;1.90;;
26082;SDS011;13848;49.018;12.078;2022-08-03T07:34:50;3.33;;;2.00;;
26082;SDS011;13848;49.018;12.078;2022-08-03T07:37:17;4.55;;;2.00;;
26082;SDS011;13848;49.018;12.078;2022-08-03T07:39:43;2.65;;;1.83;;
26082;SDS011;13848;49.018;12.078;2022-08-03T07:42:09;4.78;;;2.13;;
26082;SDS011;13848;49.018;12.078;2022-08-03T07:44:35;6.65;;;2.10;;
26082;SDS011;13848;49.018;12.078;2022-08-03T07:47:02;4.72;;;1.98;;
26082;SDS011;13848;49.018;12.078;2022-08-03T07:49:29;3.67;;;1.90;;
26082;SDS011;13848;49.018;12.078;2022-08-03T07:51:56;3.92;;;1.98;;
26082;SDS011;13848;49.018;12.078;2022-08-03T07:54:22;4.30;;;1.80;;
26082;SDS011;13848;49.018;12.078;2022-08-03T07:56:48;3.67;;;2.15;;
26082;SDS011;13848;49.018;12.078;2022-08-03T07:59:14;3.13;;;1.73;;
26082;SDS011;13848;49.018;12.078;2022-08-03T08:01:40;2.85;;;1.70;;
26082;SDS011;13848;49.018;12.078;2022-08-03T08:04:07;3.80;;;1.65;;
26082;SDS011;13848;49.018;12.078;2022-08-03T08:06:33;3.45;;;1.70;;
26082;SDS011;13848;49.018;12.078;2022-08-03T08:08:59;3.83;;;1.58;;
26082;SDS011;13848;49.018;12.078;2022-08-03T08:11:25;2.08;;;1.80;;
26082;SDS011;13848;49.018;12.078;2022-08-03T08:13:51;4.28;;;1.70;;
26082;SDS011;13848;49.018;12.078;2022-08-03T08:16:17;6.97;;;1.90;;
26082;SDS011;13848;49.018;12.078;2022-08-03T08:18:43;2.10;;;1.70;;
26082;SDS011;13848;49.018;12.078;2022-08-03T08:21:10;5.57;;;1.70;;
26082;SDS011;13848;49.018;12.078;2022-08-03T08:23:36;5.45;;;1.83;;
26082;SDS011;13848;49.018;12.078;2022-08-03T08:26:02;3.85;;;2.40;;
26082;SDS011;13848;49.018;12.078;2022-08-03T08:28:28;2.47;;;1.65;;
26082;SDS011;13848;49.018;12.078;2022-08-03T08:30:54;2.78;;;1.60;;
26082;SDS011;13848;49.018;12.078;2022-08-03T08:33:20;3.45;;;1.60;;
26082;SDS011;13848;49.018;12.078;2022-08-03T08:35:46;6.30;;;1.88;;
26082;SDS011;13848;49.018;12.078;2022-08-03T08:38:13;6.40;;;1.67;;
26082;SDS011;13848;49.018;12.078;2022-08-03T08:40:39;6.72;;;1.70;;
26082;SDS011;13848;49.018;12.078;2022-08-03T08:43:06;3.85;;;1.67;;
26082;SDS011;13848;49.018;12.078;2022-08-03T08:45:32;2.72;;;1.40;;
26082;SDS011;13848;49.018;12.078;2022-08-03T08:47:58;2.38;;;1.42;;
26082;SDS011;13848;49.018;12.078;2022-08-03T08:50:27;6.43;;;1.73;;
26082;SDS011;13848;49.018;12.078;2022-08-03T08:52:54;3.17;;;1.48;;
26082;SDS011;13848;49.018;12.078;2022-08-03T08:55:26;5.10;;;1.47;;
26082;SDS011;13848;49.018;12.078;2022-08-03T08:57:54;2.30;;;1.30;;
26082;SDS011;13848;49.018;12.078;2022-08-03T09:00:23;3.25;;;1.50;;
26082;SDS011;13848;49.018;12.078;2022-08-03T09:02:49;3.05;;;1.40;;
26082;SDS011;13848;49.018;12.078;2022-08-03T09:05:16;6.15;;;1.50;;
26082;SDS011;13848;49.018;12.078;2022-08-03T09:07:44;5.93;;;1.40;;
26082;SDS011;13848;49.018;12.078;2022-08-03T09:10:11;4.18;;;1.30;;
26082;SDS011;13848;49.018;12.078;2022-08-03T09:12:42;4.05;;;1.42;;
26082;SDS011;13848;49.018;12.078;2022-08-03T09:15:19;4.85;;;1.60;;
26082;SDS011;13848;49.018;12.078;2022-08-03T09:17:47;2.25;;;1.30;;
26082;SDS011;13848;49.018;12.078;2022-08-03T09:20:13;2.33;;;1.30;;
26082;SDS011;13848;49.018;12.078;2022-08-03T09:22:52;8.32;;;1.50;;
26082;SDS011;13848;49.018;12.078;2022-08-03T09:25:25;2.80;;;1.40;;
26082;SDS011;13848;49.018;12.078;2022-08-03T09:27:53;9.43;;;1.45;;
26082;SDS011;13848;49.018;12.078;2022-08-03T09:30:19;4.70;;;1.52;;
26082;SDS011;13848;49.018;12.078;2022-08-03T09:32:45;4.13;;;1.40;;
26082;SDS011;13848;49.018;12.078;2022-08-03T09:35:12;2.40;;;1.42;;
26082;SDS011;13848;49.018;12.078;2022-08-03T09:37:38;3.10;;;1.23;;
26082;SDS011;13848;49.018;12.078;2022-08-03T09:40:05;3.85;;;1.20;;
26082;SDS011;13848;49.018;12.078;2022-08-03T09:42:32;5.22;;;1.50;;
26082;SDS011;13848;49.018;12.078;2022-08-03T09:44:59;2.63;;;1.30;;
26082;SDS011;13848;49.018;12.078;2022-08-03T09:47:44;13.00;;;2.47;;
26082;SDS011;13848;49.018;12.078;2022-08-03T09:50:10;7.82;;;1.80;;
26082;SDS011;13848;49.018;12.078;2022-08-03T09:52:37;3.03;;;1.40;;
26082;SDS011;13848;49.018;12.078;2022-08-03T09:55:07;4.50;;;1.52;;
26082;SDS011;13848;49.018;12.078;2022-08-03T09:57:34;6.50;;;1.55;;
26082;SDS011;13848;49.018;12.078;2022-08-03T10:00:08;3.13;;;1.25;;
26082;SDS011;13848;49.018;12.078;2022-08-03T10:02:36;2.10;;;1.20;;
26082;SDS011;13848;49.018;12.078;2022-08-03T10:05:03;3.03;;;1.30;;
26082;SDS011;13848;49.018;12.078;2022-08-03T10:07:40;1.83;;;1.20;;
26082;SDS011;13848;49.018;12.078;2022-08-03T10:10:07;3.33;;;1.40;;
26082;SDS011;13848;49.018;12.078;2022-08-03T10:12:33;2.78;;;1.30;;
26082;SDS011;13848;49.018;12.078;2022-08-03T10:15:00;2.22;;;1.23;;
26082;SDS011;13848;49.018;12.078;2022-08-03T10:17:28;3.92;;;1.30;;
26082;SDS011;13848;49.018;12.078;2022-08-03T10:19:54;1.80;;;1.20;;
26082;SDS011;13848;49.018;12.078;2022-08-03T10:22:20;3.13;;;1.35;;
26082;SDS011;13848;49.018;12.078;2022-08-03T10:24:51;3.00;;;1.30;;
26082;SDS011;13848;49.018;12.078;2022-08-03T10:27:21;3.38;;;1.20;;
26082;SDS011;13848;49.018;12.078;2022-08-03T10:29:49;2.50;;;1.40;;
26082;SDS011;13848;49.018;12.078;2022-08-03T10:32:17;5.15;;;1.35;;
26082;SDS011;13848;49.018;12.078;2022-08-03T10:34:51;11.15;;;1.50;;
26082;SDS011;13848;49.018;12.078;2022-08-03T10:37:23;1.33;;;1.20;;
26082;SDS011;13848;49.018;12.078;2022-08-03T10:39:51;1.33;;;1.08;;
26082;SDS011;13848;49.018;12.078;2022-08-03T10:42:18;0.95;;;0.90;;
26082;SDS011;13848;49.018;12.078;2022-08-03T10:44:46;2.78;;;1.52;;
26082;SDS011;13848;49.018;12.078;2022-08-03T10:47:17;2.05;;;1.10;;
26082;SDS011;13848;49.018;12.078;2022-08-03T10:49:43;2.13;;;1.20;;
26082;SDS011;13848;49.018;12.078;2022-08-03T10:52:13;2.35;;;1.33;;
26082;SDS011;13848;49.018;12.078;2022-08-03T10:54:40;1.50;;;1.10;;
26082;SDS011;13848;49.018;12.078;2022-08-03T10:57:07;3.42;;;1.33;;
26082;SDS011;13848;49.018;12.078;2022-08-03T11:00:19;4.30;;;1.20;;
26082;SDS011;13848;49.018;12.078;2022-08-03T11:05:38;2.72;;;1.33;;
26082;SDS011;13848;49.018;12.078;2022-08-03T11:08:18;5.85;;;1.40;;
26082;SDS011;13848;49.018;12.078;2022-08-03T11:10:46;2.78;;;1.42;;
26082;SDS011;13848;49.018;12.078;2022-08-03T11:13:13;3.83;;;1.30;;
26082;SDS011;13848;49.018;12.078;2022-08-03T11:15:42;4.40;;;1.40;;
26082;SDS011;13848;49.018;12.078;2022-08-03T11:18:09;2.13;;;1.10;;
26082;SDS011;13848;49.018;12.078;2022-08-03T11:20:43;3.60;;;1.52;;
26082;SDS011;13848;49.018;12.078;2022-08-03T11:23:10;3.38;;;1.52;;
26082;SDS011;13848;49.018;12.078;2022-08-03T11:28:34;3.75;;;1.40;;
26082;SDS011;13848;49.018;12.078;2022-08-03T11:34:03;1.77;;;1.30;;
26082;SDS011;13848;49.018;12.078;2022-08-03T11:36:30;3.72;;;1.20;;
26082;SDS011;13848;49.018;12.078;2022-08-03T11:39:16;2.60;;;1.40;;
26082;SDS011;13848;49.018;12.078;2022-08-03T11:41:42;2.17;;;1.10;;
26082;SDS011;13848;49.018;12.078;2022-08-03T11:44:08;2.45;;;1.23;;
26082;SDS011;13848;49.018;12.078;2022-08-03T11:46:35;1.38;;;1.10;;
26082;SDS011;13848;49.018;12.078;2022-08-03T11:49:04;1.30;;;1.20;;
26082;SDS011;13848;49.018;12.078;2022-08-03T11:51:31;2.30;;;1.10;;
26082;SDS011;13848;49.018;12.078;2022-08-03T11:53:57;1.92;;;1.25;;
26082;SDS011;13848;49.018;12.078;2022-08-03T11:56:25;2.42;;;1.20;;
26082;SDS011;13848;49.018;12.078;2022-08-03T11:58:52;5.80;;;1.50;;
26082;SDS011;13848;49.018;12.078;2022-08-03T12:01:19;5.90;;;1.27;;
26082;SDS011;13848;49.018;12.078;2022-08-03T12:03:46;2.70;;;1.15;;
26082;SDS011;13848;49.018;12.078;2022-08-03T12:06:14;1.40;;;1.10;;
26082;SDS011;13848;49.018;12.078;2022-08-03T12:08:41;4.07;;;1.50;;
26082;SDS011;13848;49.018;12.078;2022-08-03T12:11:08;2.00;;;1.25;;
26082;SDS011;13848;49.018;12.078;2022-08-03T12:13:37;7.65;;;1.48;;
26082;SDS011;13848;49.018;12.078;2022-08-03T12:16:04;1.48;;;1.20;;
26082;SDS011;13848;49.018;12.078;2022-08-03T12:18:30;2.05;;;1.10;;
26082;SDS011;13848;49.018;12.078;2022-08-03T12:21:02;2.50;;;0.93;;
26082;SDS011;13848;49.018;12.078;2022-08-03T12:23:31;2.00;;;1.17;;
26082;SDS011;13848;49.018;12.078;2022-08-03T12:26:00;1.73;;;1.10;;
26082;SDS011;13848;49.018;12.078;2022-08-03T12:28:26;1.02;;;0.93;;
26082;SDS011;13848;49.018;12.078;2022-08-03T12:30:52;3.45;;;1.27;;
26082;SDS011;13848;49.018;12.078;2022-08-03T12:33:19;2.58;;;1.23;;
26082;SDS011;13848;49.018;12.078;2022-08-03T12:36:07;2.40;;;1.20;;
26082;SDS011;13848;49.018;12.078;2022-08-03T12:38:38;1.98;;;1.00;;
26082;SDS011;13848;49.018;12.078;2022-08-03T12:41:05;1.55;;;1.00;;
26082;SDS011;13848;49.018;12.078;2022-08-03T12:43:32;4.40;;;1.20;;
26082;SDS011;13848;49.018;12.078;2022-08-03T12:46:09;4.15;;;1.20;;
26082;SDS011;13848;49.018;12.078;2022-08-03T12:48:58;2.53;;;1.05;;
26082;SDS011;13848;49.018;12.078;2022-08-03T12:51:26;5.97;;;1.20;;
26082;SDS011;13848;49.018;12.078;2022-08-03T12:53:54;1.52;;;1.20;;
26082;SDS011;13848;49.018;12.078;2022-08-03T12:56:21;2.08;;;1.10;;
26082;SDS011;13848;49.018;12.078;2022-08-03T12:58:47;2.63;;;1.52;;
26082;SDS011;13848;49.018;12.078;2022-08-03T13:01:13;3.72;;;1.25;;
26082;SDS011;13848;49.018;12.078;2022-08-03T13:03:40;1.95;;;1.17;;
26082;SDS011;13848;49.018;12.078;2022-08-03T13:06:09;1.35;;;1.20;;
26082;SDS011;13848;49.018;12.078;2022-08-03T13:08:36;2.58;;;1.20;;
26082;SDS011;13848;49.018;12.078;2022-08-03T13:11:17;3.72;;;1.20;;
26082;SDS011;13848;49.018;12.078;2022-08-03T13:13:44;2.72;;;1.13;;
26082;SDS011;13848;49.018;12.078;2022-08-03T13:16:10;3.15;;;1.15;;
26082;SDS011;13848;49.018;12.078;2022-08-03T13:18:36;2.75;;;1.00;;
26082;SDS011;13848;49.018;12.078;2022-08-03T13:21:02;2.83;;;1.42;;
26082;SDS011;13848;49.018;12.078;2022-08-03T13:23:28;9.18;;;1.50;;
26082;SDS011;13848;49.018;12.078;2022-08-03T13:25:54;2.13;;;1.30;;
26082;SDS011;13848;49.018;12.078;2022-08-03T13:28:21;4.38;;;1.75;;
26082;SDS011;13848;49.018;12.078;2022-08-03T13:30:47;3.65;;;1.60;;
26082;SDS011;13848;49.018;12.078;2022-08-03T13:33:13;3.03;;;1.20;;
26082;SDS011;13848;49.018;12.078;2022-08-03T13:35:39;2.95;;;1.20;;
26082;SDS011;13848;49.018;12.078;2022-08-03T13:38:05;1.10;;;1.00;;
26082;SDS011;13848;49.018;12.078;2022-08-03T13:40:31;3.55;;;1.30;;
26082;SDS011;13848;49.018;12.078;2022-08-03T13:42:57;2.78;;;1.00;;
26082;SDS011;13848;49.018;12.078;2022-08-03T13:45:24;4.15;;;1.40;;
26082;SDS011;13848;49.018;12.078;2022-08-03T13:47:50;1.52;;;1.30;;
26082;SDS011;13848;49.018;12.078;2022-08-03T13:50:16;1.63;;;1.20;;
26082;SDS011;13848;49.018;12.078;2022-08-03T13:52:42;2.15;;;1.23;;
26082;SDS011;13848;49.018;12.078;2022-08-03T13:55:08;2.88;;;1.38;;
26082;SDS011;13848;49.018;12.078;2022-08-03T13:57:34;1.80;;;1.00;;
26082;SDS011;13848;49.018;12.078;2022-08-03T14:00:00;1.80;;;1.00;;
26082;SDS011;13848;49.018;12.078;2022-08-03T14:02:28;1.48;;;1.20;;
26082;SDS011;13848;49.018;12.078;2022-08-03T14:04:53;3.53;;;1.40;;
26082;SDS011;13848;49.018;12.078;2022-08-03T14:07:19;1.92;;;1.13;;
26082;SDS011;13848;49.018;12.078;2022-08-03T14:09:45;2.90;;;1.20;;
26082;SDS011;13848;49.018;12.078;2022-08-03T14:12:11;1.80;;;1.10;;
26082;SDS011;13848;49.018;12.078;2022-08-03T14:14:37;3.10;;;1.48;;
26082;SDS011;13848;49.018;12.078;2022-08-03T14:17:03;1.77;;;1.10;;
26082;SDS011;13848;49.018;12.078;2022-08-03T14:19:31;1.13;;;1.00;;
26082;SDS011;13848;49.018;12.078;2022-08-03T14:21:57;3.05;;;1.15;;
26082;SDS011;13848;49.018;12.078;2022-08-03T14:24:23;2.47;;;1.20;;
26082;SDS011;13848;49.018;12.078;2022-08-03T14:26:49;2.17;;;1.40;;
26082;SDS011;13848;49.018;12.078;2022-08-03T14:29:15;4.05;;;1.13;;
26082;SDS011;13848;49.018;12.078;2022-08-03T14:31:41;1.48;;;1.20;;
26082;SDS011;13848;49.018;12.078;2022-08-03T14:34:07;1.23;;;1.13;;
26082;SDS011;13848;49.018;12.078;2022-08-03T14:36:34;1.63;;;1.25;;
26082;SDS011;13848;49.018;12.078;2022-08-03T14:39:00;1.63;;;1.13;;
26082;SDS011;13848;49.018;12.078;2022-08-03T14:41:26;2.80;;;1.20;;
26082;SDS011;13848;49.018;12.078;2022-08-03T14:43:52;1.70;;;1.08;;
26082;SDS011;13848;49.018;12.078;2022-08-03T14:46:18;1.70;;;1.20;;
26082;SDS011;13848;49.018;12.078;2022-08-03T14:48:44;4.28;;;1.30;;